Sausalito, CA

12:08 PM PDT on September 16, 2014 (GMT -0700)
Metro Oakland International | Change Station
CLOSE
Current Station
Airport
Location: Oakland,
Elevation: 7 ft
Nearby Weather Stations
Active Advisory: Beach Hazard Statement

Elev 7 ft 37.72 °N, 122.23 °W | Updated 15 minutes ago

Clear
Clear
70 °F
Feels Like 70 °F
N
6
Wind Variable Wind from SW

Today
High -- | Low -- °F
--% Chance of Precip.
Yesterday
High -- | Low -- °F
Precip. -- in
6:52 AM 7:16 PM
Last Quarter, 43% visible
Pressure 29.91 in
Visibility 10.0 miles
Clouds Few 18000 ft
Dew Point 58 °F
Humidity 65%
Rainfall 0.00 in
Snow Depth 0 in , 0 in , 0 in
UV 7 out of 12
Pollen 5.20 out of 12
Air Quality Not available.
Flu Activity Not available.
METAR KOAK 161853Z 22005KT 10SM FEW180 21/14 A2991 RMK AO2 SLP126 T02110144

More Conditions Fewer Conditions

Pressure 29.91 in
Visibility 10.0 miles
Clouds Few 18000 ft
Dew Point 58 °F
Humidity 65%
Rainfall 0.00 in
Snow Depth 0 in , 0 in , 0 in
UV 7 out of 12
Pollen 5.20 out of 12
Air Quality Not available.
Flu Activity Not available.
METAR KOAK 161853Z 22005KT 10SM FEW180 21/14 A2991 RMK AO2 SLP126 T02110144

More Conditions Fewer Conditions

10-Day Weather Forecast

Almanac

Astronomy

Sep. 16, 2014 Rise Set
Actual Time 6:52 AM PDT 7:16 PM PDT
Civil Twilight 6:26 AM PDT 7:42 PM PDT
Nautical Twilight 5:55 AM PDT 8:13 PM PDT
Astronomical Twilight 5:24 AM PDT 8:44 PM PDT
Moon 12:11 AM PDT 2:40 PM PDT
Length of Visible Light 13h 16m
Length of Day
12h 23m
Tomorrow will be 2m 25s shorter.
Last Quarter, 43% of the Moon is Illuminated
Today
Last Quarter
Sep 24
New
Oct 1
First Quarter
Oct 8
Full
Oct 15
Last Quarter

Today's Extremes

State Highs State Lows

Community

WunderPhotos

Upload Photos

1,753,860 photos uploaded!

WunderBlogs® & News

Nearby

Snow Depth

Station Depth Elevation
Blue Lakes 0 in 8000 ft
Spratt Creek 0 in 6200 ft
Forestdale Creek 0 in 8029 ft
CSS Lab 3 in 6900 ft
Adin Mountain 0 in 6200 ft

Earthquake Activity

City Distance Mag. Time & Date
Covelo, California 134 miles 3.3 1:17 PM PDT
2014-09-14
Cobb, California 68 miles 2.7 11:07 AM PDT
2014-09-14
Minimum magnitude displayed is 2.5.

Coastal Water Temperatures

Place Temperature
San Francisco, CA 64.9 °F
Richmond, CA 66.9 °F
Port Chicago, CA 69.1 °F

Nearby Weather Stations